Time;durP1;ratioP1;P1;durP2;ratioP2;P2;SDS_P1;SDS_P2;PMS_P1;PMS_P2;Temp;Humidity;BMP_temperature;BMP_pressure;BME280_temperature;BME280_humidity;BME280_pressure;Samples;Min_cycle;Max_cycle;Signal;HPM_P1;HPM_P2
2022/12/29 00:01:55;;;;;;;3.08;1.67;;;7.80;99.90;;;;;;5071491;28;20107;-43
2022/12/29 00:04:21;;;;;;;2.17;1.63;;;7.80;99.90;;;;;;5071440;28;20027;-40
2022/12/29 00:06:46;;;;;;;3.28;1.75;;;7.80;99.90;;;;;;5071150;28;20024;-42
2022/12/29 00:09:12;;;;;;;4.18;2.10;;;7.80;99.90;;;;;;5071260;28;20033;-40
2022/12/29 00:11:38;;;;;;;4.15;1.95;;;7.80;99.90;;;;;;5071333;28;20021;-42
2022/12/29 00:16:48;;;;;;;4.68;1.88;;;7.80;99.90;;;;;;5071104;28;20096;-43
2022/12/29 00:35:53;;;;;;;2.88;1.80;;;7.80;99.90;;;;;;5071142;28;20437;-41
2022/12/29 00:44:09;;;;;;;4.07;1.75;;;7.90;99.90;;;;;;5067710;28;20052;-43
2022/12/29 00:46:37;;;;;;;2.92;1.58;;;7.80;99.90;;;;;;5070553;28;20482;-42
2022/12/29 00:51:48;;;;;;;3.33;1.48;;;7.80;99.90;;;;;;5071308;28;20135;-41
2022/12/29 00:54:14;;;;;;;2.70;1.73;;;7.80;99.90;;;;;;5070879;28;20100;-43
2022/12/29 00:56:40;;;;;;;3.42;1.70;;;7.80;99.90;;;;;;5070685;28;20088;-40
2022/12/29 00:59:08;;;;;;;3.63;1.60;;;7.80;99.90;;;;;;5069424;28;20032;-42
2022/12/29 01:01:36;;;;;;;2.20;1.67;;;7.80;99.90;;;;;;5070858;28;20028;-40
2022/12/29 01:04:01;;;;;;;3.22;1.70;;;7.90;99.90;;;;;;5070870;28;20036;-39
2022/12/29 01:06:27;;;;;;;2.40;1.50;;;7.90;99.90;;;;;;5073172;28;20415;-41
2022/12/29 01:11:38;;;;;;;2.75;1.60;;;7.90;99.90;;;;;;5074610;28;20035;-39
2022/12/29 01:14:05;;;;;;;5.07;2.28;;;7.90;99.90;;;;;;5074643;28;20115;-42
2022/12/29 01:16:31;;;;;;;2.75;1.52;;;7.90;99.90;;;;;;5074256;28;20024;-43
2022/12/29 01:18:57;;;;;;;4.95;1.80;;;7.90;99.90;;;;;;5074465;28;20496;-42
2022/12/29 01:21:23;;;;;;;2.90;1.33;;;7.80;99.90;;;;;;5074482;28;20588;-42
2022/12/29 01:23:48;;;;;;;3.83;1.50;;;7.90;99.90;;;;;;5074431;28;20082;-38
2022/12/29 01:26:16;;;;;;;4.07;2.20;;;7.90;99.90;;;;;;5073969;28;20024;-40
2022/12/29 01:28:42;;;;;;;3.45;1.60;;;7.90;99.90;;;;;;5074501;28;20029;-41
2022/12/29 01:31:12;;;;;;;4.97;1.77;;;7.90;99.90;;;;;;5074256;28;20023;-38
2022/12/29 01:33:38;;;;;;;3.08;1.80;;;7.90;99.90;;;;;;5074295;28;20024;-41
2022/12/29 01:36:07;;;;;;;2.92;1.40;;;7.90;99.90;;;;;;5074036;28;20370;-43
2022/12/29 01:38:35;;;;;;;4.20;1.50;;;7.90;99.90;;;;;;5073980;28;20054;-40
2022/12/29 01:41:01;;;;;;;2.60;1.45;;;7.90;99.90;;;;;;5074615;28;20031;-41
2022/12/29 01:43:44;;;;;;;3.75;1.60;;;7.90;99.90;;;;;;5072843;28;20107;-40
2022/12/29 01:46:25;;;;;;;4.35;1.50;;;7.90;99.90;;;;;;5072345;28;20379;-40
2022/12/29 01:48:59;;;;;;;2.42;1.40;;;7.90;99.90;;;;;;5073964;28;20025;-41
2022/12/29 01:51:28;;;;;;;2.38;1.50;;;7.90;99.90;;;;;;5073922;28;20119;-42
2022/12/29 01:53:57;;;;;;;3.42;1.55;;;7.90;99.90;;;;;;5073937;28;20024;-42
2022/12/29 01:56:23;;;;;;;3.25;1.63;;;7.90;99.90;;;;;;5073455;28;20482;-43
2022/12/29 01:58:55;;;;;;;1.50;1.20;;;7.90;99.90;;;;;;5073847;28;20082;-42
2022/12/29 02:01:21;;;;;;;4.75;1.40;;;7.90;99.90;;;;;;5073780;28;20066;-41
2022/12/29 02:03:48;;;;;;;2.38;1.40;;;7.90;99.90;;;;;;5073601;28;20031;-41
2022/12/29 02:06:29;;;;;;;2.17;1.42;;;7.90;99.90;;;;;;5073373;28;20513;-43
2022/12/29 02:08:56;;;;;;;3.97;1.42;;;7.90;99.90;;;;;;5073629;28;20111;-42
2022/12/29 02:11:25;;;;;;;3.22;1.23;;;7.90;99.90;;;;;;5073610;28;20109;-41
2022/12/29 02:13:51;;;;;;;2.53;1.13;;;7.90;99.90;;;;;;5073566;28;20047;-41
2022/12/29 02:16:52;;;;;;;3.08;1.60;;;7.90;99.90;;;;;;5072682;28;20482;-38
2022/12/29 02:19:42;;;;;;;5.05;1.30;;;7.90;99.90;;;;;;5073650;28;20387;-39
2022/12/29 02:22:43;;;;;;;2.72;1.50;;;7.90;99.90;;;;;;5073428;28;20350;-40
2022/12/29 02:25:20;;;;;;;4.60;1.50;;;7.90;99.90;;;;;;5062251;28;20037;-41
2022/12/29 02:28:11;;;;;;;2.38;1.30;;;7.90;99.90;;;;;;5073133;28;20024;-41
2022/12/29 02:31:03;;;;;;;2.45;1.48;;;7.90;99.90;;;;;;5073131;28;20033;-42
2022/12/29 02:33:37;;;;;;;3.63;1.13;;;7.90;99.90;;;;;;5073118;28;20043;-40
2022/12/29 02:36:03;;;;;;;;;;;7.90;99.90;;;;;;5073465;28;20394;-40
2022/12/29 02:39:02;;;;;;;2.63;1.30;;;7.90;99.90;;;;;;5073000;28;20388;-42
2022/12/29 02:42:09;;;;;;;2.42;1.30;;;7.90;99.90;;;;;;5062190;28;20055;-42
2022/12/29 02:45:13;;;;;;;2.65;1.30;;;7.90;99.90;;;;;;5010718;28;20022;-39
2022/12/29 02:47:46;;;;;;;2.03;1.35;;;7.90;99.90;;;;;;5072642;28;20051;-43
2022/12/29 02:50:31;;;;;;;4.10;1.58;;;7.90;99.90;;;;;;5072910;28;20025;-39
2022/12/29 02:53:04;;;;;;;2.25;1.45;;;7.90;99.90;;;;;;5072806;28;20432;-43
2022/12/29 02:55:30;;;;;;;3.10;1.38;;;7.90;99.90;;;;;;5072500;28;20047;-40
2022/12/29 02:58:21;;;;;;;3.17;1.38;;;7.90;99.90;;;;;;5072281;28;20033;-42
2022/12/29 03:01:20;;;;;;;2.38;1.23;;;7.90;99.90;;;;;;5072599;28;20036;-41
2022/12/29 03:04:04;;;;;;;4.18;1.30;;;7.90;99.90;;;;;;5072635;28;20021;-42
2022/12/29 03:06:51;;;;;;;3.40;1.10;;;7.90;99.90;;;;;;5072232;28;20025;-43
2022/12/29 03:09:51;;;;;;;3.28;1.40;;;7.90;99.90;;;;;;5072527;28;20482;-42
2022/12/29 03:18:19;;;;;;;4.13;1.35;;;8.00;99.90;;;;;;5072189;28;20069;-43
2022/12/29 03:21:00;;;;;;;3.00;1.05;;;7.90;99.90;;;;;;5072058;28;20082;-43
2022/12/29 03:23:28;;;;;;;2.58;1.42;;;7.90;99.90;;;;;;5072207;28;20036;-42
2022/12/29 03:25:57;;;;;;;4.07;1.70;;;7.90;99.90;;;;;;5072067;28;20031;-41
2022/12/29 03:28:29;;;;;;;3.03;1.50;;;8.00;99.90;;;;;;5071577;28;20035;-39
2022/12/29 03:30:57;;;;;;;5.07;1.42;;;7.90;99.90;;;;;;5072004;28;20028;-38
2022/12/29 03:33:26;;;;;;;4.43;1.48;;;7.90;99.90;;;;;;5071807;28;20461;-41
2022/12/29 03:35:58;;;;;;;2.67;1.27;;;7.90;99.90;;;;;;5071825;28;20031;-40
2022/12/29 03:38:35;;;;;;;2.28;1.20;;;8.00;99.90;;;;;;5071807;28;20020;-43
2022/12/29 03:41:05;;;;;;;2.95;1.40;;;8.00;99.90;;;;;;5071902;28;20043;-42
2022/12/29 03:43:31;;;;;;;3.72;1.40;;;8.00;99.90;;;;;;5071830;28;20035;-42
2022/12/29 03:45:57;;;;;;;2.13;1.30;;;8.00;99.90;;;;;;5071593;28;20557;-41
2022/12/29 03:48:22;;;;;;;2.40;1.17;;;8.00;99.90;;;;;;5071370;28;20186;-43
2022/12/29 03:50:48;;;;;;;1.98;1.13;;;8.00;99.90;;;;;;5071714;28;20056;-41
2022/12/29 03:53:14;;;;;;;2.40;1.23;;;8.00;99.90;;;;;;5071611;28;20033;-39
2022/12/29 03:55:39;;;;;;;2.08;1.30;;;8.00;99.90;;;;;;5071421;28;20125;-40
2022/12/29 03:58:05;;;;;;;1.80;1.20;;;8.00;99.90;;;;;;5071337;28;20025;-43
2022/12/29 04:00:31;;;;;;;2.28;1.20;;;8.00;99.90;;;;;;5071599;28;20024;-41
2022/12/29 04:02:56;;;;;;;1.88;1.00;;;8.00;99.90;;;;;;5071359;28;20032;-38
2022/12/29 04:05:22;;;;;;;3.50;1.20;;;8.00;99.90;;;;;;5071455;28;20020;-43
2022/12/29 04:07:47;;;;;;;2.88;1.13;;;8.00;99.90;;;;;;5071306;28;20017;-43
2022/12/29 04:10:13;;;;;;;2.53;1.40;;;8.00;99.90;;;;;;5071496;28;20054;-41
2022/12/29 04:12:41;;;;;;;6.00;1.45;;;8.00;99.90;;;;;;5071386;28;20485;-41
2022/12/29 04:15:07;;;;;;;2.80;1.70;;;8.00;99.90;;;;;;5071353;28;20031;-42
2022/12/29 04:17:33;;;;;;;2.70;1.17;;;8.00;99.90;;;;;;5070968;28;20119;-43
2022/12/29 04:22:44;;;;;;;4.35;1.10;;;8.00;99.90;;;;;;5049680;28;20043;-41
2022/12/29 04:25:10;;;;;;;3.22;1.27;;;8.00;99.90;;;;;;5071303;28;20028;-43
2022/12/29 04:27:36;;;;;;;5.03;1.40;;;8.00;99.90;;;;;;5070926;28;20031;-42
2022/12/29 04:30:02;;;;;;;3.05;1.50;;;8.00;99.90;;;;;;5071017;28;20483;-42
2022/12/29 04:32:27;;;;;;;1.52;1.20;;;8.00;99.90;;;;;;5071470;28;20032;-42
2022/12/29 04:34:53;;;;;;;4.00;1.27;;;8.00;99.90;;;;;;5071179;28;20502;-42
2022/12/29 04:37:18;;;;;;;2.90;1.15;;;8.00;99.90;;;;;;5070829;28;20028;-42
2022/12/29 04:39:44;;;;;;;3.13;1.65;;;8.00;99.90;;;;;;5071179;28;20029;-40
2022/12/29 04:42:09;;;;;;;4.13;1.48;;;8.00;99.90;;;;;;5074882;28;20017;-40
2022/12/29 04:44:35;;;;;;;2.53;1.48;;;8.00;99.90;;;;;;5075203;28;20487;-37
2022/12/29 04:47:01;;;;;;;2.80;1.58;;;8.00;99.90;;;;;;5074831;28;20033;-40
2022/12/29 04:49:26;;;;;;;3.70;1.45;;;8.00;99.90;;;;;;5075747;28;20407;-43
2022/12/29 04:51:52;;;;;;;2.00;1.40;;;8.00;99.90;;;;;;5075069;28;20024;-41
2022/12/29 04:54:17;;;;;;;4.88;1.95;;;8.00;99.90;;;;;;5074922;28;20382;-41
2022/12/29 04:56:43;;;;;;;2.47;1.40;;;8.00;99.90;;;;;;5074642;28;20119;-42
2022/12/29 04:59:08;;;;;;;2.47;1.30;;;8.00;99.90;;;;;;5074899;28;20020;-42
2022/12/29 05:01:34;;;;;;;5.93;1.58;;;8.00;99.90;;;;;;5075060;28;20413;-41
2022/12/29 05:04:00;;;;;;;3.25;1.48;;;8.00;99.90;;;;;;5074839;28;20031;-39
2022/12/29 05:06:25;;;;;;;2.33;1.50;;;8.00;99.90;;;;;;5074521;28;20064;-40
2022/12/29 05:08:51;;;;;;;3.05;1.55;;;8.00;99.90;;;;;;5074710;28;20026;-40
2022/12/29 05:11:16;;;;;;;2.35;1.70;;;8.00;99.90;;;;;;5074540;28;20025;-41
2022/12/29 05:13:46;;;;;;;5.93;1.48;;;8.10;99.90;;;;;;5075151;28;20113;-41
2022/12/29 05:16:11;;;;;;;4.75;1.58;;;8.00;99.90;;;;;;5074614;28;20032;-40
2022/12/29 05:18:37;;;;;;;5.28;1.80;;;8.10;99.90;;;;;;5074517;28;20700;-43
2022/12/29 05:21:03;;;;;;;3.42;1.67;;;8.10;99.90;;;;;;5074613;28;20109;-38
2022/12/29 05:23:28;;;;;;;5.05;1.60;;;8.10;99.90;;;;;;5074528;28;20036;-41
2022/12/29 05:25:54;;;;;;;3.58;1.60;;;8.10;99.90;;;;;;5074133;28;20517;-38
2022/12/29 05:28:20;;;;;;;3.30;1.70;;;8.10;99.90;;;;;;5074243;28;20023;-38
2022/12/29 05:30:51;;;;;;;2.83;1.42;;;8.10;99.90;;;;;;5074524;28;20478;-41
2022/12/29 05:33:17;;;;;;;4.20;1.60;;;8.10;99.90;;;;;;5074316;28;20052;-39
2022/12/29 05:35:43;;;;;;;2.13;1.58;;;8.10;99.90;;;;;;5074156;28;20103;-39
2022/12/29 05:38:09;;;;;;;2.58;1.42;;;8.10;99.90;;;;;;5074062;28;20494;-41
2022/12/29 05:40:35;;;;;;;4.03;1.63;;;8.10;99.90;;;;;;5073942;28;20555;-41
2022/12/29 05:43:00;;;;;;;4.70;1.77;;;8.10;99.90;;;;;;5074056;28;20028;-42
2022/12/29 05:45:26;;;;;;;3.38;1.70;;;8.10;99.90;;;;;;5074026;28;20056;-39
2022/12/29 05:47:52;;;;;;;4.90;1.80;;;8.10;99.90;;;;;;5073809;28;20373;-37
2022/12/29 05:50:17;;;;;;;5.68;1.90;;;8.10;99.90;;;;;;5073879;28;20032;-42
2022/12/29 05:52:43;;;;;;;6.25;1.67;;;8.10;99.90;;;;;;5074240;28;20107;-39
2022/12/29 05:55:09;;;;;;;5.68;1.80;;;8.10;99.90;;;;;;5073867;28;20035;-41
2022/12/29 05:57:35;;;;;;;4.45;1.63;;;8.10;99.90;;;;;;5073741;28;20029;-43
2022/12/29 06:00:03;;;;;;;4.05;2.10;;;8.10;99.90;;;;;;5073952;28;20106;-42
2022/12/29 06:02:28;;;;;;;3.85;2.05;;;8.10;99.90;;;;;;5073666;28;20035;-41
2022/12/29 06:04:54;;;;;;;2.33;1.58;;;8.10;99.90;;;;;;5073700;28;20025;-40
2022/12/29 06:07:20;;;;;;;3.47;1.60;;;8.10;99.90;;;;;;5073383;28;20033;-41
2022/12/29 06:09:45;;;;;;;4.57;1.70;;;8.10;99.90;;;;;;5073387;28;20072;-42
2022/12/29 06:12:11;;;;;;;2.13;1.63;;;8.10;99.90;;;;;;5072194;28;20043;-42
2022/12/29 06:14:36;;;;;;;3.78;1.70;;;8.10;99.90;;;;;;5073797;28;20026;-41
2022/12/29 06:17:02;;;;;;;3.75;1.77;;;8.20;99.90;;;;;;5073194;28;20025;-40
2022/12/29 06:19:28;;;;;;;4.28;2.03;;;8.10;99.90;;;;;;5073521;28;20029;-39
2022/12/29 06:21:53;;;;;;;2.42;1.77;;;8.10;99.90;;;;;;5073438;28;20036;-43
2022/12/29 06:24:19;;;;;;;4.65;1.92;;;8.10;99.90;;;;;;5073431;28;20488;-38
2022/12/29 06:26:45;;;;;;;3.80;1.88;;;8.10;99.90;;;;;;5073572;28;20032;-42
2022/12/29 06:29:11;;;;;;;2.65;1.67;;;8.10;99.90;;;;;;5073217;28;20029;-41
2022/12/29 06:31:36;;;;;;;4.00;1.63;;;8.10;99.90;;;;;;5073327;28;20573;-42
2022/12/29 06:34:02;;;;;;;2.58;1.52;;;8.10;99.90;;;;;;5073168;28;20020;-40
2022/12/29 06:36:28;;;;;;;3.08;1.85;;;8.10;99.90;;;;;;5072805;28;20032;-42
2022/12/29 06:38:54;;;;;;;3.28;1.77;;;8.10;99.90;;;;;;5072874;28;20028;-40
2022/12/29 06:41:20;;;;;;;3.60;1.80;;;8.10;99.90;;;;;;5073022;28;20024;-40
2022/12/29 06:43:46;;;;;;;3.67;1.80;;;8.10;99.90;;;;;;5072914;28;20024;-42
2022/12/29 06:46:12;;;;;;;3.65;1.77;;;8.10;99.90;;;;;;5072654;28;20132;-42
2022/12/29 06:48:37;;;;;;;2.05;1.70;;;8.10;99.90;;;;;;5072815;28;20035;-39
2022/12/29 06:51:03;;;;;;;2.58;1.60;;;8.10;99.90;;;;;;5072837;28;20029;-39
2022/12/29 06:53:29;;;;;;;2.45;1.73;;;8.10;99.90;;;;;;5072634;28;20104;-39
2022/12/29 06:55:56;;;;;;;5.47;1.83;;;8.10;99.90;;;;;;5072399;28;20029;-41
2022/12/29 06:58:22;;;;;;;2.95;1.60;;;8.10;99.90;;;;;;5072579;28;20028;-38
2022/12/29 07:00:48;;;;;;;2.90;1.77;;;8.10;99.90;;;;;;5072964;28;20021;-40
2022/12/29 07:03:13;;;;;;;3.03;1.80;;;8.10;99.90;;;;;;5072048;28;20036;-40
2022/12/29 07:05:39;;;;;;;3.05;2.10;;;8.10;99.90;;;;;;5072479;28;20394;-40
2022/12/29 07:08:05;;;;;;;4.70;2.10;;;8.10;99.90;;;;;;5072067;28;20040;-40
2022/12/29 07:10:31;;;;;;;5.22;1.83;;;8.10;99.90;;;;;;5072591;28;20044;-37
2022/12/29 07:12:56;;;;;;;3.47;2.00;;;8.10;99.90;;;;;;5073328;28;20059;-39
2022/12/29 07:15:22;;;;;;;3.88;1.77;;;8.10;99.90;;;;;;5072563;28;20024;-39
2022/12/29 07:17:49;;;;;;;3.05;1.77;;;8.10;99.90;;;;;;5072606;28;20025;-40
2022/12/29 07:20:15;;;;;;;4.43;2.03;;;8.10;99.90;;;;;;5072596;28;20111;-41
2022/12/29 07:22:41;;;;;;;4.32;1.67;;;8.10;99.90;;;;;;5072148;28;20461;-40
2022/12/29 07:25:07;;;;;;;2.35;1.70;;;8.10;99.90;;;;;;5072160;28;20031;-40
2022/12/29 07:27:32;;;;;;;5.82;2.00;;;8.10;99.90;;;;;;5071763;28;20494;-37
2022/12/29 07:29:58;;;;;;;5.43;1.75;;;8.10;99.90;;;;;;5071963;28;20028;-40
2022/12/29 07:32:24;;;;;;;5.22;2.08;;;8.10;99.90;;;;;;5072015;28;20039;-42
2022/12/29 07:34:49;;;;;;;2.78;1.90;;;8.10;99.90;;;;;;5071964;28;20016;-41
2022/12/29 07:37:15;;;;;;;3.70;1.98;;;8.20;99.90;;;;;;5071538;28;20029;-38
2022/12/29 07:39:41;;;;;;;2.75;1.67;;;8.20;99.90;;;;;;5071825;28;20020;-41
2022/12/29 07:42:06;;;;;;;2.45;1.90;;;8.20;99.90;;;;;;5071825;28;20082;-41
2022/12/29 07:44:32;;;;;;;4.47;2.10;;;8.20;99.90;;;;;;5071758;28;20402;-39
2022/12/29 07:46:58;;;;;;;3.60;1.77;;;8.20;99.90;;;;;;5071453;28;20028;-38
2022/12/29 07:49:23;;;;;;;4.18;2.15;;;8.20;99.90;;;;;;5071625;28;20028;-40
2022/12/29 07:51:49;;;;;;;3.90;1.60;;;8.20;99.90;;;;;;5071566;28;20020;-36
2022/12/29 07:54:17;;;;;;;3.38;2.08;;;8.20;99.90;;;;;;5071457;28;20025;-39
2022/12/29 07:56:43;;;;;;;4.05;2.03;;;8.20;99.90;;;;;;5071318;28;20025;-39
2022/12/29 07:59:09;;;;;;;3.30;1.90;;;8.20;99.90;;;;;;5071577;28;20029;-40
2022/12/29 08:01:35;;;;;;;2.20;1.95;;;8.20;99.90;;;;;;5071525;28;20025;-41
2022/12/29 08:04:01;;;;;;;4.22;1.60;;;8.20;99.90;;;;;;5071510;28;20479;-38
2022/12/29 08:06:26;;;;;;;3.58;1.88;;;8.20;99.90;;;;;;5071373;28;20032;-38
2022/12/29 08:08:52;;;;;;;2.33;1.77;;;8.20;99.90;;;;;;5071741;28;20036;-40
2022/12/29 08:11:17;;;;;;;4.43;1.90;;;8.20;99.90;;;;;;5071446;28;20391;-41
2022/12/29 08:13:43;;;;;;;3.30;1.67;;;8.20;99.90;;;;;;5071720;28;20099;-39
2022/12/29 08:16:08;;;;;;;3.97;2.28;;;8.20;99.90;;;;;;5070352;28;20390;-40
2022/12/29 08:18:34;;;;;;;5.20;1.92;;;8.20;99.90;;;;;;5069941;28;20024;-35
2022/12/29 08:21:04;;;;;;;3.58;1.90;;;8.20;99.90;;;;;;5071169;28;20059;-43
2022/12/29 08:23:30;;;;;;;2.70;1.80;;;8.20;99.90;;;;;;5071251;28;20128;-41
2022/12/29 08:26:00;;;;;;;4.22;1.60;;;8.20;99.90;;;;;;5071134;28;20036;-39
2022/12/29 08:28:26;;;;;;;3.17;1.77;;;8.20;99.90;;;;;;5071059;28;20098;-40
2022/12/29 08:30:52;;;;;;;2.75;1.73;;;8.30;99.90;;;;;;5071218;28;20096;-41
2022/12/29 08:33:18;;;;;;;4.95;1.60;;;8.30;99.90;;;;;;5071056;28;20115;-40
2022/12/29 08:35:44;;;;;;;3.97;1.70;;;8.30;99.90;;;;;;5071107;28;20043;-44
2022/12/29 08:38:11;;;;;;;3.45;1.90;;;8.30;99.90;;;;;;5070956;28;20017;-38
2022/12/29 08:40:37;;;;;;;4.22;1.73;;;8.30;99.90;;;;;;5071098;28;20025;-39
2022/12/29 08:43:02;;;;;;;2.80;1.75;;;8.20;99.90;;;;;;5071119;28;20153;-38
2022/12/29 08:45:28;;;;;;;2.85;1.75;;;8.30;99.90;;;;;;5071048;28;20024;-38
2022/12/29 08:47:53;;;;;;;5.93;1.73;;;8.30;99.90;;;;;;5071346;28;20028;-41
2022/12/29 08:50:19;;;;;;;2.00;1.60;;;8.30;99.90;;;;;;5071003;28;20087;-38
2022/12/29 08:52:45;;;;;;;4.80;1.80;;;8.30;99.90;;;;;;5070985;28;20086;-40
2022/12/29 08:55:10;;;;;;;2.72;1.70;;;8.30;99.90;;;;;;5070920;28;20158;-37
2022/12/29 08:57:36;;;;;;;3.60;2.00;;;8.30;99.90;;;;;;5070688;28;20044;-38
2022/12/29 09:00:03;;;;;;;2.72;1.70;;;8.30;99.90;;;;;;5070963;28;20393;-40
2022/12/29 09:02:29;;;;;;;3.97;1.90;;;8.30;99.90;;;;;;5070795;28;20036;-41
2022/12/29 09:04:54;;;;;;;2.72;1.70;;;8.30;99.90;;;;;;5070934;28;20040;-38
2022/12/29 09:07:20;;;;;;;3.15;1.75;;;8.30;99.90;;;;;;5070736;28;20114;-40
2022/12/29 09:09:45;;;;;;;4.10;1.75;;;8.30;99.90;;;;;;5070869;28;20029;-37
2022/12/29 09:12:11;;;;;;;3.33;1.70;;;8.30;99.90;;;;;;5071099;28;20489;-33
2022/12/29 09:14:37;;;;;;;4.18;1.80;;;8.40;99.90;;;;;;5069844;28;20029;-33
2022/12/29 09:19:46;;;;;;;5.20;1.45;;;8.40;99.90;;;;;;5071347;28;20035;-33
2022/12/29 09:22:12;;;;;;;3.85;1.90;;;8.40;99.90;;;;;;5070786;28;20032;-36
2022/12/29 09:24:38;;;;;;;5.40;1.67;;;8.40;99.90;;;;;;5069659;28;20474;-33
2022/12/29 09:27:03;;;;;;;3.95;1.52;;;8.50;99.90;;;;;;5072135;28;20032;-33
2022/12/29 09:29:29;;;;;;;4.15;1.70;;;8.50;99.90;;;;;;5074204;28;20024;-32
2022/12/29 09:31:54;;;;;;;3.45;1.70;;;8.50;99.90;;;;;;5074531;28;20112;-38
2022/12/29 09:34:20;;;;;;;3.08;1.60;;;8.50;99.90;;;;;;5074308;28;20024;-35
2022/12/29 09:36:46;;;;;;;2.33;1.45;;;8.50;99.90;;;;;;5073926;28;20019;-37
2022/12/29 09:39:12;;;;;;;6.30;1.63;;;8.50;99.90;;;;;;5074350;28;20132;-33
2022/12/29 09:41:41;;;;;;;4.25;1.60;;;8.40;99.90;;;;;;5074143;28;20041;-40
2022/12/29 09:44:26;;;;;;;2.67;1.73;;;8.50;99.90;;;;;;5073948;28;20058;-35
2022/12/29 09:46:55;;;;;;;3.47;2.00;;;8.50;99.90;;;;;;5073730;28;20502;-40
2022/12/29 09:49:45;;;;;;;4.10;1.83;;;8.50;99.90;;;;;;5074025;28;20123;-42
2022/12/29 09:52:18;;;;;;;3.63;1.75;;;8.50;99.90;;;;;;5073963;28;20025;-37
2022/12/29 09:54:53;;;;;;;4.28;1.80;;;8.50;99.90;;;;;;5073761;28;20071;-40
2022/12/29 09:57:43;;;;;;;3.58;1.58;;;8.60;99.90;;;;;;5073679;28;20021;-38
2022/12/29 10:00:21;;;;;;;4.68;1.30;;;8.60;99.90;;;;;;5073987;28;20024;-37
2022/12/29 10:02:56;;;;;;;7.78;1.80;;;8.60;99.90;;;;;;5073708;28;20036;-32
2022/12/29 10:05:39;;;;;;;4.60;1.33;;;8.60;99.90;;;;;;5073736;28;20082;-38
2022/12/29 10:08:29;;;;;;;2.63;1.52;;;8.60;99.90;;;;;;5073508;28;20168;-32
2022/12/29 10:11:13;;;;;;;5.13;1.63;;;8.60;99.90;;;;;;5073733;28;20036;-41
2022/12/29 10:13:50;;;;;;;5.15;1.45;;;8.60;99.90;;;;;;5074033;28;20032;-35
2022/12/29 10:16:24;;;;;;;4.32;2.10;;;8.60;99.90;;;;;;5073444;28;20035;-36
2022/12/29 10:19:05;;;;;;;3.45;1.70;;;8.60;99.90;;;;;;5073637;28;20154;-37
2022/12/29 10:21:43;;;;;;;3.15;1.90;;;8.60;99.90;;;;;;5073995;28;20428;-33
2022/12/29 10:24:12;;;;;;;2.60;1.63;;;8.60;99.90;;;;;;5073756;28;20032;-40
2022/12/29 10:26:43;;;;;;;4.47;2.10;;;8.60;99.90;;;;;;5073304;28;20035;-43
2022/12/29 10:29:19;;;;;;;3.67;1.83;;;8.60;99.90;;;;;;5072013;28;20481;-34
2022/12/29 10:31:56;;;;;;;4.20;2.33;;;8.60;99.90;;;;;;5073507;28;20021;-37
2022/12/29 10:34:42;;;;;;;3.97;2.13;;;8.60;99.90;;;;;;5073287;28;20146;-35
2022/12/29 10:37:38;;;;;;;5.07;2.40;;;8.60;99.90;;;;;;5073033;28;20025;-41
2022/12/29 10:40:31;;;;;;;3.78;2.30;;;8.60;99.90;;;;;;5073001;28;20070;-32
2022/12/29 10:42:58;;;;;;;3.53;1.92;;;8.70;99.90;;;;;;5073252;28;20544;-36
2022/12/29 10:45:30;;;;;;;4.97;2.38;;;8.70;99.90;;;;;;5073087;28;20036;-38
2022/12/29 10:47:59;;;;;;;5.70;2.28;;;8.70;99.90;;;;;;5073019;28;20036;-40
2022/12/29 10:50:26;;;;;;;5.53;2.40;;;8.70;99.90;;;;;;5073199;28;20056;-42
2022/12/29 10:52:54;;;;;;;5.13;2.20;;;8.70;99.90;;;;;;5072809;28;20027;-34
2022/12/29 10:55:27;;;;;;;6.20;2.30;;;8.70;99.90;;;;;;5072735;28;20506;-38
2022/12/29 10:57:56;;;;;;;5.40;2.58;;;8.70;99.90;;;;;;5072763;28;20025;-40
2022/12/29 11:00:22;;;;;;;5.22;2.42;;;8.70;99.90;;;;;;5073291;28;20078;-36
2022/12/29 11:03:03;;;;;;;3.65;2.33;;;8.70;99.90;;;;;;5072776;28;20412;-32
2022/12/29 11:06:01;;;;;;;5.78;2.00;;;8.70;99.90;;;;;;5072459;28;20051;-32
2022/12/29 11:08:33;;;;;;;3.78;2.30;;;8.70;99.90;;;;;;5072523;28;20067;-37
2022/12/29 11:11:08;;;;;;;4.57;2.25;;;8.70;99.90;;;;;;5072554;28;20544;-33
2022/12/29 11:13:46;;;;;;;4.28;1.90;;;8.70;99.90;;;;;;5072464;28;20398;-37
2022/12/29 11:16:12;;;;;;;7.13;2.13;;;8.70;99.90;;;;;;5072233;28;20051;-41
2022/12/29 11:18:39;;;;;;;3.92;2.05;;;8.70;99.90;;;;;;5072251;28;20028;-41
2022/12/29 11:21:39;;;;;;;4.32;2.22;;;8.70;99.90;;;;;;5072393;28;20104;-37
2022/12/29 11:24:18;;;;;;;5.07;2.50;;;8.70;99.90;;;;;;5067978;28;20036;-37
2022/12/29 11:26:44;;;;;;;8.02;2.20;;;8.70;99.90;;;;;;5072293;28;20028;-37
2022/12/29 11:29:16;;;;;;;5.20;2.40;;;8.70;99.90;;;;;;5072231;28;20056;-40
2022/12/29 11:31:47;;;;;;;5.05;2.40;;;8.70;99.90;;;;;;5071992;28;20024;-33
2022/12/29 11:34:27;;;;;;;4.30;1.90;;;8.70;99.90;;;;;;5072103;28;20025;-43
2022/12/29 11:36:58;;;;;;;4.07;2.33;;;8.70;99.90;;;;;;5072281;28;20147;-35
2022/12/29 11:39:31;;;;;;;6.57;2.20;;;8.70;99.90;;;;;;5072393;28;20490;-38
2022/12/29 11:41:57;;;;;;;3.50;2.22;;;8.70;99.90;;;;;;5071970;28;20048;-37
2022/12/29 11:44:24;;;;;;;3.45;2.30;;;8.70;99.90;;;;;;5071934;28;20498;-42
2022/12/29 11:46:51;;;;;;;4.55;2.00;;;8.70;99.90;;;;;;5071590;28;20334;-39
2022/12/29 11:49:23;;;;;;;4.25;2.10;;;8.70;99.90;;;;;;5071461;28;20104;-42
2022/12/29 11:51:51;;;;;;;5.25;1.88;;;8.70;99.90;;;;;;5072239;28;20044;-40
2022/12/29 11:54:36;;;;;;;5.25;1.85;;;8.70;99.90;;;;;;5071678;28;20017;-42
2022/12/29 11:57:15;;;;;;;4.82;2.17;;;8.70;99.90;;;;;;5071323;28;20024;-38
2022/12/29 11:59:43;;;;;;;5.28;2.20;;;8.70;99.90;;;;;;5071698;28;20107;-37
2022/12/29 12:02:21;;;;;;;3.17;2.00;;;8.70;99.90;;;;;;5071603;28;20418;-35
2022/12/29 12:04:55;;;;;;;3.60;2.00;;;8.70;99.90;;;;;;5071899;28;20539;-34
2022/12/29 12:07:33;;;;;;;3.72;1.90;;;8.70;99.90;;;;;;5071736;28;20355;-33
2022/12/29 12:10:03;;;;;;;4.95;1.95;;;8.70;99.90;;;;;;5071301;28;20494;-38
2022/12/29 12:12:53;;;;;;;2.58;1.60;;;8.70;99.90;;;;;;5071510;28;20036;-36
2022/12/29 12:16:01;;;;;;;4.80;1.60;;;8.70;99.90;;;;;;5071483;28;20021;-41
2022/12/29 12:18:36;;;;;;;5.78;1.73;;;8.70;99.90;;;;;;5037160;28;20032;-40
2022/12/29 12:21:29;;;;;;;3.45;1.77;;;8.70;99.90;;;;;;5071459;28;20517;-38
2022/12/29 12:24:28;;;;;;;3.95;1.63;;;8.70;99.90;;;;;;5065400;28;20033;-39
2022/12/29 12:27:19;;;;;;;4.28;2.28;;;8.70;99.90;;;;;;5071116;28;20390;-37
2022/12/29 12:29:54;;;;;;;3.80;1.83;;;8.70;99.90;;;;;;5071437;28;20482;-33
2022/12/29 12:32:37;;;;;;;4.22;2.20;;;8.70;99.90;;;;;;5071330;28;20029;-34
2022/12/29 12:35:04;;;;;;;3.50;1.90;;;8.70;99.90;;;;;;5071481;28;20031;-31
2022/12/29 12:37:53;;;;;;;4.05;2.22;;;8.70;99.90;;;;;;5071128;28;20039;-39
2022/12/29 12:40:31;;;;;;;3.28;1.90;;;8.70;99.90;;;;;;5071277;28;20030;-33
2022/12/29 12:43:15;;;;;;;3.40;1.83;;;8.70;99.90;;;;;;5071303;28;20036;-35
2022/12/29 12:45:55;;;;;;;2.75;2.00;;;8.70;99.90;;;;;;5071075;28;20599;-39
2022/12/29 12:48:59;;;;;;;3.20;1.70;;;8.70;99.90;;;;;;5070859;28;20123;-38
2022/12/29 12:51:33;;;;;;;2.80;2.17;;;8.70;99.90;;;;;;5071094;28;20096;-36
2022/12/29 12:54:23;;;;;;;3.72;2.00;;;8.70;99.90;;;;;;5071096;28;20025;-36
2022/12/29 12:57:00;;;;;;;5.03;1.83;;;8.70;99.90;;;;;;5070792;28;20059;-32
2022/12/29 12:59:58;;;;;;;4.85;2.08;;;8.70;99.90;;;;;;5071012;28;20020;-40
2022/12/29 13:02:39;;;;;;;8.25;2.35;;;8.70;99.90;;;;;;5073528;28;20055;-38
2022/12/29 13:05:45;;;;;;;3.13;2.20;;;8.70;99.90;;;;;;5074885;28;20035;-36
2022/12/29 13:08:26;;;;;;;5.13;2.35;;;8.80;99.90;;;;;;5012354;28;20034;-38
2022/12/29 13:11:10;;;;;;;3.47;1.92;;;8.80;99.90;;;;;;5068003;28;20048;-37
2022/12/29 13:14:13;;;;;;;5.57;2.22;;;8.80;99.90;;;;;;5074767;28;20021;-36
2022/12/29 13:16:59;;;;;;;6.32;2.28;;;8.80;99.90;;;;;;5074326;28;20091;-38
2022/12/29 13:19:47;;;;;;;3.28;1.80;;;8.80;99.90;;;;;;5074746;28;20086;-40
2022/12/29 13:22:41;;;;;;;6.55;1.90;;;8.80;99.90;;;;;;5074592;28;20029;-38
2022/12/29 13:25:22;;;;;;;4.93;2.22;;;8.90;99.90;;;;;;5074936;28;20107;-31
2022/12/29 13:27:52;;;;;;;5.38;2.03;;;8.90;99.90;;;;;;5074652;28;20028;-39
2022/12/29 13:30:22;;;;;;;5.18;2.10;;;9.00;99.90;;;;;;5074427;28;20024;-41
2022/12/29 13:33:09;;;;;;;5.13;2.25;;;9.00;99.90;;;;;;5074448;28;20082;-36
2022/12/29 13:35:37;;;;;;;4.07;2.08;;;9.00;99.90;;;;;;5074608;28;20509;-34
2022/12/29 13:38:18;;;;;;;4.03;2.00;;;9.00;99.90;;;;;;5074521;28;20386;-32
2022/12/29 13:40:49;;;;;;;4.68;2.40;;;9.10;99.90;;;;;;5074347;28;20024;-36
2022/12/29 13:43:17;;;;;;;4.90;1.77;;;9.10;99.90;;;;;;5074821;28;20146;-38
2022/12/29 13:45:45;;;;;;;4.57;1.90;;;9.10;99.90;;;;;;5074036;28;20103;-38
2022/12/29 13:48:19;;;;;;;4.18;2.15;;;9.10;99.90;;;;;;5073863;28;20024;-39
2022/12/29 13:50:58;;;;;;;4.30;2.15;;;9.10;99.90;;;;;;5074118;28;20162;-38
2022/12/29 13:53:59;;;;;;;4.55;2.00;;;9.10;99.90;;;;;;5074190;28;20039;-32
2022/12/29 13:56:31;;;;;;;4.07;1.90;;;9.10;99.90;;;;;;5054088;28;20098;-35
2022/12/29 13:59:09;;;;;;;4.00;1.90;;;9.20;99.90;;;;;;5074179;28;20483;-39
2022/12/29 14:01:36;;;;;;;5.45;2.22;;;9.10;99.90;;;;;;5074017;28;20033;-43
2022/12/29 14:04:08;;;;;;;3.72;1.88;;;9.20;99.90;;;;;;5074026;28;20032;-35